createdAt,value
2018-05-01T00:00:37.604Z,56.96
2018-05-01T00:03:40.146Z,56.45
2018-05-01T00:06:42.704Z,57.16
2018-05-01T00:09:45.201Z,56.38
2018-05-01T00:12:47.686Z,56.39
2018-05-01T00:15:50.163Z,55.07
2018-05-01T00:18:52.717Z,53.84
2018-05-01T00:21:55.212Z,53.47
2018-05-01T00:24:57.739Z,53.25
2018-05-01T00:28:00.267Z,54.53
2018-05-01T00:31:02.845Z,55.23
2018-05-01T00:34:05.394Z,55.00
2018-05-01T00:37:08.594Z,54.04
2018-05-01T00:40:11.092Z,53.83
2018-05-01T00:43:13.596Z,53.39
2018-05-01T00:46:16.109Z,53.20
2018-05-01T00:49:18.596Z,53.11
2018-05-01T00:52:32.740Z,53.18
2018-05-01T00:55:35.264Z,53.98
2018-05-01T00:58:37.779Z,54.38
2018-05-01T01:01:40.269Z,54.37
2018-05-01T01:04:42.787Z,53.73
2018-05-01T01:07:45.282Z,53.27
2018-05-01T01:10:47.772Z,52.55
2018-05-01T01:13:50.280Z,51.27
2018-05-01T01:16:52.756Z,50.80
2018-05-01T01:19:55.247Z,50.88
2018-05-01T01:22:57.712Z,50.52
2018-05-01T01:26:00.201Z,50.26
2018-05-01T01:29:02.671Z,49.83
2018-05-01T01:32:14.982Z,50.02
2018-05-01T01:35:16.947Z,49.56
2018-05-01T01:38:18.897Z,49.83
2018-05-01T01:41:20.874Z,49.44
2018-05-01T01:44:22.896Z,49.54
2018-05-01T01:47:24.867Z,49.60
2018-05-01T01:50:26.823Z,49.28
2018-05-01T01:53:28.793Z,49.52
2018-05-01T01:56:30.753Z,50.40
2018-05-01T01:59:33.121Z,49.88
2018-05-01T02:02:35.082Z,49.74
2018-05-01T02:05:37.023Z,50.34
2018-05-01T02:08:38.965Z,50.02
2018-05-01T02:11:40.991Z,49.61
2018-05-01T02:14:42.955Z,49.08
2018-05-01T02:17:44.912Z,48.97
2018-05-01T02:20:46.846Z,48.44
2018-05-01T02:23:48.776Z,48.09
2018-05-01T02:26:50.711Z,47.85
2018-05-01T02:29:52.746Z,47.47
2018-05-01T02:32:54.718Z,47.46
2018-05-01T02:35:56.672Z,47.41
2018-05-01T02:38:58.604Z,47.29
2018-05-01T02:42:00.572Z,47.29
2018-05-01T02:45:02.508Z,47.15
2018-05-01T02:48:04.485Z,47.11
2018-05-01T02:51:06.542Z,47.03
2018-05-01T02:54:08.532Z,46.86
2018-05-01T02:57:10.480Z,47.00
2018-05-01T03:00:12.454Z,46.92
2018-05-01T03:03:14.435Z,46.92
2018-05-01T03:06:16.423Z,46.92
2018-05-01T03:09:18.428Z,47.22
2018-05-01T03:12:20.384Z,47.16
2018-05-01T03:15:22.341Z,46.97
2018-05-01T03:18:24.307Z,47.07
2018-05-01T03:21:26.315Z,47.25
2018-05-01T03:24:28.259Z,47.11
2018-05-01T03:27:30.241Z,47.29
2018-05-01T03:30:32.190Z,47.26
2018-05-01T03:33:34.199Z,47.49
2018-05-01T03:36:36.154Z,47.30
2018-05-01T03:39:38.099Z,47.02
2018-05-01T03:42:40.075Z,46.91
2018-05-01T03:45:42.025Z,46.99
2018-05-01T03:48:43.990Z,46.81
2018-05-01T03:51:45.929Z,46.71
2018-05-01T03:54:47.896Z,46.75
2018-05-01T03:57:49.855Z,46.89
2018-05-01T04:00:51.866Z,46.91
2018-05-01T04:03:53.767Z,46.94
2018-05-01T04:06:55.743Z,46.94
2018-05-01T04:09:57.718Z,46.88
2018-05-01T04:12:59.692Z,46.36
2018-05-01T04:16:01.679Z,46.53
2018-05-01T04:19:03.654Z,46.44
2018-05-01T04:22:05.633Z,46.46
2018-05-01T04:25:07.590Z,46.40
2018-05-01T04:28:09.564Z,46.63
2018-05-01T04:31:11.526Z,46.66
2018-05-01T04:34:13.542Z,46.69
2018-05-01T04:37:15.545Z,46.88
2018-05-01T04:40:17.571Z,47.33
2018-05-01T04:43:20.066Z,47.07
2018-05-01T04:46:22.042Z,47.01
2018-05-01T04:49:24.057Z,47.14
2018-05-01T04:52:26.041Z,46.67
2018-05-01T04:55:28.086Z,46.09
2018-05-01T04:58:30.122Z,45.95
2018-05-01T05:01:32.086Z,45.88
2018-05-01T05:04:34.023Z,45.87
2018-05-01T05:07:35.972Z,45.93
2018-05-01T05:10:37.911Z,46.02
2018-05-01T05:13:39.853Z,46.28
2018-05-01T05:16:41.810Z,46.32
2018-05-01T05:19:43.793Z,46.28
2018-05-01T05:22:45.759Z,45.54
2018-05-01T05:25:47.741Z,45.29
2018-05-01T05:28:49.688Z,45.29
2018-05-01T05:31:51.648Z,45.44
2018-05-01T05:34:53.616Z,45.67
2018-05-01T05:37:55.567Z,45.78
2018-05-01T05:40:57.515Z,45.51
2018-05-01T05:43:59.489Z,45.42
2018-05-01T05:47:01.500Z,44.33
2018-05-01T05:50:03.595Z,44.02
2018-05-01T05:53:05.542Z,43.94
2018-05-01T05:56:07.562Z,43.99
2018-05-01T05:59:18.848Z,43.61
2018-05-01T06:02:20.834Z,43.44
2018-05-01T06:05:22.778Z,42.66
2018-05-01T06:08:24.755Z,42.09
2018-05-01T06:11:26.719Z,42.05
2018-05-01T06:14:28.728Z,42.26
2018-05-01T06:17:30.781Z,42.32
2018-05-01T06:20:32.718Z,42.34
2018-05-01T06:23:34.689Z,42.30
2018-05-01T06:26:36.667Z,42.45
2018-05-01T06:29:38.650Z,42.76
2018-05-01T06:32:41.624Z,42.45
2018-05-01T06:35:43.610Z,42.78
2018-05-01T06:38:45.536Z,42.20
2018-05-01T06:41:47.523Z,42.41
2018-05-01T06:44:49.552Z,42.30
2018-05-01T06:47:51.530Z,42.45
2018-05-01T06:50:54.831Z,42.66
2018-05-01T06:53:59.416Z,42.34
2018-05-01T06:57:01.383Z,42.64
2018-05-01T07:00:03.354Z,42.67
2018-05-01T07:03:05.384Z,41.77
2018-05-01T07:06:07.391Z,41.15
2018-05-01T07:09:09.330Z,41.05
2018-05-01T07:12:11.324Z,40.98
2018-05-01T07:15:13.286Z,40.75
2018-05-01T07:18:15.270Z,40.93
2018-05-01T07:21:17.277Z,40.85
2018-05-01T07:24:19.252Z,40.46
2018-05-01T07:27:21.283Z,40.26
2018-05-01T07:30:23.202Z,40.13
2018-05-01T07:33:25.185Z,40.30
2018-05-01T07:36:27.212Z,40.13
2018-05-01T07:39:29.202Z,39.93
2018-05-01T07:42:31.213Z,39.88
2018-05-01T07:45:33.259Z,40.06
2018-05-01T07:48:35.242Z,40.08
2018-05-01T07:51:37.207Z,40.20
2018-05-01T07:54:39.218Z,40.26
2018-05-01T07:57:41.228Z,40.14
2018-05-01T08:00:43.286Z,40.57
2018-05-01T08:03:45.451Z,39.89
2018-05-01T08:06:47.451Z,40.06
2018-05-01T08:09:49.417Z,39.27
2018-05-01T08:12:51.427Z,38.95
2018-05-01T08:15:53.397Z,38.67
2018-05-01T08:18:55.413Z,38.98
2018-05-01T08:21:57.411Z,38.37
2018-05-01T08:24:59.412Z,38.77
2018-05-01T08:28:01.454Z,39.02
2018-05-01T08:31:03.453Z,39.25
2018-05-01T08:34:05.460Z,39.62
2018-05-01T08:37:07.476Z,39.34
2018-05-01T08:40:09.547Z,38.93
2018-05-01T08:43:11.641Z,38.87
2018-05-01T08:46:13.624Z,39.05
2018-05-01T08:49:15.661Z,39.19
2018-05-01T08:52:17.631Z,39.43
2018-05-01T08:55:19.655Z,39.31
2018-05-01T08:58:21.688Z,39.38
2018-05-01T09:01:23.699Z,39.03
2018-05-01T09:04:25.718Z,38.71
2018-05-01T09:07:27.765Z,38.53
2018-05-01T09:10:29.771Z,38.27
2018-05-01T09:13:31.777Z,37.66
2018-05-01T09:16:33.835Z,37.25
2018-05-01T09:19:35.878Z,37.04
2018-05-01T09:22:37.894Z,37.14
2018-05-01T09:25:40.653Z,37.78
2018-05-01T09:28:42.689Z,38.10
2018-05-01T09:31:44.664Z,37.38
2018-05-01T09:34:46.829Z,36.95
2018-05-01T09:37:48.862Z,36.53
2018-05-01T09:40:50.885Z,36.26
2018-05-01T09:43:52.938Z,35.52
2018-05-01T09:46:54.954Z,35.71
2018-05-01T09:49:57.025Z,35.99
2018-05-01T09:52:59.642Z,36.12
2018-05-01T09:56:02.218Z,35.89
2018-05-01T09:59:04.796Z,35.68
2018-05-01T10:02:07.345Z,35.68
2018-05-01T10:05:09.959Z,35.60
2018-05-01T10:08:12.475Z,35.43
2018-05-01T10:11:15.042Z,34.88
2018-05-01T10:14:17.625Z,34.89
2018-05-01T10:17:20.266Z,34.43
2018-05-01T10:20:22.849Z,34.16
2018-05-01T10:23:25.398Z,33.93
2018-05-01T10:26:28.581Z,34.10
2018-05-01T10:29:31.144Z,33.47
2018-05-01T10:32:33.701Z,33.78
2018-05-01T10:35:36.977Z,33.13
2018-05-01T10:38:39.709Z,32.43
2018-05-01T10:41:42.425Z,32.68
2018-05-01T10:44:44.972Z,32.47
2018-05-01T10:47:48.032Z,32.84
2018-05-01T10:50:50.634Z,32.60
2018-05-01T10:53:53.378Z,32.62
2018-05-01T10:56:56.024Z,32.43
2018-05-01T10:59:58.617Z,32.49
2018-05-01T11:03:01.160Z,31.95
2018-05-01T11:06:04.565Z,31.92
2018-05-01T11:09:07.144Z,31.80
2018-05-01T11:12:12.033Z,32.01
2018-05-01T11:15:14.684Z,32.00
2018-05-01T11:18:17.297Z,32.01
2018-05-01T11:21:20.001Z,31.84
2018-05-01T11:24:22.533Z,31.76
2018-05-01T11:27:25.088Z,31.67
2018-05-01T11:30:27.733Z,31.83
2018-05-01T11:33:30.401Z,31.69
2018-05-01T11:36:32.914Z,32.05
2018-05-01T11:39:35.547Z,31.76
2018-05-01T11:42:38.162Z,32.37
2018-05-01T11:45:40.729Z,32.20
2018-05-01T11:48:43.296Z,31.47
2018-05-01T11:51:45.808Z,31.55
2018-05-01T11:54:48.389Z,30.67
2018-05-01T11:57:50.935Z,31.16
2018-05-01T12:00:53.530Z,31.14
2018-05-01T12:03:56.084Z,31.65
2018-05-01T12:06:58.677Z,31.55
2018-05-01T12:10:01.232Z,31.61
2018-05-01T12:13:03.764Z,31.21
2018-05-01T12:16:06.385Z,30.91
2018-05-01T12:19:08.949Z,31.96
2018-05-01T12:22:11.501Z,31.94
2018-05-01T12:25:14.055Z,31.68
2018-05-01T12:28:16.563Z,31.58
2018-05-01T12:31:19.231Z,31.46
2018-05-01T12:34:21.824Z,31.07
2018-05-01T12:37:24.447Z,31.21
2018-05-01T12:40:26.999Z,31.63
2018-05-01T12:43:29.546Z,31.53
2018-05-01T12:46:32.129Z,31.52
2018-05-01T12:49:34.695Z,31.44
2018-05-01T12:52:37.239Z,31.80
2018-05-01T12:55:39.800Z,31.89
2018-05-01T12:58:42.368Z,31.89
2018-05-01T13:01:44.927Z,30.90
2018-05-01T13:04:47.476Z,30.31
2018-05-01T13:07:50.039Z,30.93
2018-05-01T13:10:52.709Z,31.27
2018-05-01T13:13:55.372Z,31.33
2018-05-01T13:16:57.948Z,31.37
2018-05-01T13:20:00.571Z,31.40
2018-05-01T13:23:03.108Z,31.98
2018-05-01T13:26:05.754Z,31.33
2018-05-01T13:29:08.284Z,31.40
2018-05-01T13:32:10.917Z,31.50
2018-05-01T13:35:13.536Z,31.51
2018-05-01T13:38:16.117Z,31.68
2018-05-01T13:41:18.674Z,31.76
2018-05-01T13:44:21.190Z,31.71
2018-05-01T13:47:23.816Z,31.58
2018-05-01T13:50:26.509Z,31.62
2018-05-01T13:53:29.081Z,31.63
2018-05-01T13:56:31.627Z,31.68
2018-05-01T13:59:34.273Z,31.40
2018-05-01T14:02:36.822Z,31.87
2018-05-01T14:05:39.369Z,31.93
2018-05-01T14:08:41.965Z,31.65
2018-05-01T14:11:44.480Z,31.66
2018-05-01T14:14:47.076Z,30.93
2018-05-01T14:17:49.665Z,31.44
2018-05-01T14:20:52.413Z,31.33
2018-05-01T14:23:54.920Z,31.89
2018-05-01T14:26:57.488Z,31.85
2018-05-01T14:30:00.687Z,31.59
2018-05-01T14:33:03.243Z,31.30
2018-05-01T14:36:05.747Z,31.28
2018-05-01T14:39:08.317Z,31.50
2018-05-01T14:42:10.967Z,31.75
2018-05-01T14:45:14.349Z,31.40
2018-05-01T14:48:16.939Z,31.67
2018-05-01T14:51:20.201Z,32.00
2018-05-01T14:54:22.830Z,32.15
2018-05-01T14:57:25.487Z,32.05
2018-05-01T15:00:28.017Z,31.90
2018-05-01T15:03:31.336Z,32.12
2018-05-01T15:06:33.991Z,32.29
2018-05-01T15:09:36.549Z,32.08
2018-05-01T15:12:39.131Z,32.24
2018-05-01T15:15:41.768Z,32.13
2018-05-01T15:18:44.812Z,32.41
2018-05-01T15:21:47.435Z,32.62
2018-05-01T15:24:50.392Z,32.66
2018-05-01T15:27:53.621Z,32.34
2018-05-01T15:30:56.256Z,32.57
2018-05-01T15:33:58.957Z,33.13
2018-05-01T15:37:01.587Z,33.15
2018-05-01T15:40:04.221Z,33.22
2018-05-01T15:43:13.826Z,33.01
2018-05-01T15:46:19.454Z,33.04
2018-05-01T15:49:32.639Z,33.42
2018-05-01T15:52:36.712Z,34.18
2018-05-01T15:55:40.468Z,34.10
2018-05-01T15:58:49.803Z,33.71
2018-05-01T16:05:15.333Z,33.45
2018-05-01T16:08:28.499Z,33.34
2018-05-01T16:11:37.421Z,33.18
2018-05-01T16:18:31.460Z,33.08
2018-05-01T16:30:05.810Z,34.11
2018-05-01T16:33:08.734Z,34.08
2018-05-01T16:36:11.504Z,33.86
2018-05-01T16:39:16.146Z,33.96
2018-05-01T16:42:18.750Z,34.13
2018-05-01T16:45:21.369Z,34.29
2018-05-01T16:48:24.316Z,34.64
2018-05-01T16:51:26.906Z,34.33
2018-05-01T16:54:29.528Z,34.32
2018-05-01T16:57:32.904Z,34.02
2018-05-01T17:00:35.708Z,34.44
2018-05-01T17:03:38.328Z,34.47
2018-05-01T17:06:40.895Z,34.18
2018-05-01T17:09:43.761Z,34.55
2018-05-01T17:12:46.601Z,34.29
2018-05-01T17:15:49.550Z,34.56
2018-05-01T17:18:52.419Z,34.71
2018-05-01T17:21:55.179Z,34.81
2018-05-01T17:24:57.959Z,34.86
2018-05-01T17:28:00.653Z,34.97
2018-05-01T17:31:03.301Z,35.12
2018-05-01T17:34:05.961Z,35.20
2018-05-01T17:37:08.941Z,34.91
2018-05-01T17:40:11.710Z,34.78
2018-05-01T17:43:14.357Z,34.97
2018-05-01T17:46:17.032Z,34.93
2018-05-01T17:49:20.980Z,35.08
2018-05-01T17:52:23.676Z,35.22
2018-05-01T17:55:28.137Z,35.14
2018-05-01T17:58:30.990Z,34.62
2018-05-01T18:01:33.917Z,34.46
2018-05-01T18:04:37.756Z,34.50
2018-05-01T18:07:40.558Z,34.25
2018-05-01T18:10:43.436Z,34.29
2018-05-01T18:13:47.123Z,34.16
2018-05-01T18:16:49.845Z,34.38
2018-05-01T18:19:52.540Z,34.18
2018-05-01T18:22:55.302Z,34.10
2018-05-01T18:25:57.985Z,34.32
2018-05-01T18:29:03.254Z,34.31
2018-05-01T18:32:06.420Z,34.80
2018-05-01T18:35:15.666Z,35.33
2018-05-01T18:38:18.734Z,35.29
2018-05-01T18:41:23.029Z,35.02
2018-05-01T18:44:26.485Z,34.90
2018-05-01T18:47:29.436Z,35.68
2018-05-01T18:50:40.084Z,35.60
2018-05-01T18:53:35.821Z,36.13
2018-05-01T18:56:38.665Z,35.98
2018-05-01T18:59:41.387Z,36.24
2018-05-01T19:02:44.212Z,36.10
2018-05-01T19:05:46.906Z,36.20
2018-05-01T19:08:49.856Z,36.31
2018-05-01T19:11:53.726Z,36.75
2018-05-01T19:15:13.708Z,36.56
2018-05-01T19:18:17.666Z,36.74
2018-05-01T19:21:20.482Z,36.67
2018-05-01T19:24:23.711Z,36.76
2018-05-01T19:27:26.577Z,37.01
2018-05-01T19:30:29.725Z,37.63
2018-05-01T19:33:33.437Z,38.54
2018-05-01T19:36:36.936Z,38.76
2018-05-01T19:39:41.185Z,39.23
2018-05-01T19:42:45.048Z,40.61
2018-05-01T19:45:48.844Z,41.29
2018-05-01T19:48:51.548Z,39.74
2018-05-01T19:51:54.326Z,40.54
2018-05-01T19:54:56.972Z,39.04
2018-05-01T19:57:59.816Z,38.99
2018-05-01T20:01:02.607Z,39.22
2018-05-01T20:04:05.265Z,39.36
2018-05-01T20:07:08.400Z,41.09
2018-05-01T20:10:11.384Z,41.17
2018-05-01T20:13:14.024Z,41.64
2018-05-01T20:16:16.841Z,41.69
2018-05-01T20:19:20.189Z,41.41
2018-05-01T20:22:22.851Z,42.02
2018-05-01T20:25:25.553Z,42.13
2018-05-01T20:28:32.588Z,41.77
2018-05-01T20:31:35.250Z,41.54
2018-05-01T20:34:37.872Z,41.99
2018-05-01T20:37:40.977Z,42.49
2018-05-01T20:40:43.663Z,42.47
2018-05-01T20:43:46.248Z,44.32
2018-05-01T20:46:49.062Z,45.80
2018-05-01T20:49:51.746Z,45.54
2018-05-01T20:52:54.566Z,45.72
2018-05-01T20:55:58.128Z,45.15
2018-05-01T20:59:01.906Z,44.62
2018-05-01T21:02:04.509Z,45.87
2018-05-01T21:05:07.107Z,47.62
2018-05-01T21:08:09.814Z,48.91
2018-05-01T21:11:12.509Z,47.85
2018-05-01T21:14:15.310Z,48.10
2018-05-01T21:17:17.896Z,47.35
2018-05-01T21:20:20.495Z,47.55
2018-05-01T21:23:24.038Z,47.82
2018-05-01T21:26:26.664Z,48.58
2018-05-01T21:29:31.172Z,49.02
2018-05-01T21:32:33.760Z,49.12
2018-05-01T21:35:36.460Z,48.80
2018-05-01T21:38:39.014Z,49.49
2018-05-01T21:41:41.753Z,50.26
2018-05-01T21:44:44.352Z,50.23
2018-05-01T21:47:46.911Z,50.59
2018-05-01T21:50:49.556Z,51.26
2018-05-01T21:53:52.114Z,50.52
2018-05-01T21:56:54.773Z,51.66
2018-05-01T21:59:58.101Z,50.98
2018-05-01T22:03:00.664Z,51.83
2018-05-01T22:06:03.219Z,51.24
2018-05-01T22:09:07.032Z,51.05
2018-05-01T22:12:09.581Z,50.90
2018-05-01T22:15:12.097Z,51.72
2018-05-01T22:18:14.737Z,51.69
2018-05-01T22:21:17.441Z,52.15
2018-05-01T22:24:20.031Z,52.93
2018-05-01T22:27:22.761Z,52.59
2018-05-01T22:30:25.309Z,52.28
2018-05-01T22:33:28.677Z,52.39
2018-05-01T22:36:31.348Z,53.61
2018-05-01T22:39:33.944Z,53.32
2018-05-01T22:42:36.636Z,52.46
2018-05-01T22:45:39.261Z,53.43
2018-05-01T22:48:41.971Z,54.44
2018-05-01T22:51:44.787Z,54.00
2018-05-01T22:54:48.750Z,53.16
2018-05-01T22:57:51.520Z,52.95
2018-05-01T23:00:54.165Z,54.38
2018-05-01T23:03:57.640Z,54.51
2018-05-01T23:07:00.303Z,54.96
2018-05-01T23:10:02.827Z,55.38
2018-05-01T23:13:05.487Z,55.35
2018-05-01T23:16:08.087Z,55.68
2018-05-01T23:19:10.685Z,55.31
2018-05-01T23:22:14.001Z,55.57
2018-05-01T23:25:16.545Z,55.75
2018-05-01T23:28:19.067Z,55.95
2018-05-01T23:31:21.575Z,56.14
2018-05-01T23:34:24.095Z,55.85
2018-05-01T23:37:26.616Z,55.85
2018-05-01T23:40:29.147Z,56.29
2018-05-01T23:43:31.674Z,56.29
2018-05-01T23:46:34.224Z,56.94
2018-05-01T23:49:36.782Z,57.11
2018-05-01T23:52:39.295Z,57.00
2018-05-01T23:55:41.815Z,57.83
2018-05-01T23:58:44.343Z,57.83
